Time;durP1;ratioP1;P1;durP2;ratioP2;P2;SDS_P1;SDS_P2;PMS_P1;PMS_P2;Temp;Humidity;BMP_temperature;BMP_pressure;BME280_temperature;BME280_humidity;BME280_pressure;Samples;Min_cycle;Max_cycle;Signal;HPM_P1;HPM_P2
2022/10/02 00:01:53;;;;;;;28.25;7.82;;;;;;;6.03;100.00;98439.81;5173996;27;20412;-60
2022/10/02 00:04:24;;;;;;;37.03;10.25;;;;;;;6.15;100.00;98425.31;5173464;27;20140;-60
2022/10/02 00:06:54;;;;;;;228.43;12.05;;;;;;;5.92;100.00;98417.75;5173702;27;20049;-60
2022/10/02 00:09:28;;;;;;;78.18;9.60;;;;;;;5.66;100.00;98407.41;5173778;27;20497;-60
2022/10/02 00:11:57;;;;;;;103.30;10.55;;;;;;;5.60;100.00;98377.00;5173979;27;20050;-60
2022/10/02 00:14:27;;;;;;;68.82;9.38;;;;;;;5.61;100.00;98353.31;5173495;27;20054;-60
2022/10/02 00:16:57;;;;;;;47.60;9.32;;;;;;;5.58;100.00;98322.16;5174107;27;20092;-60
2022/10/02 00:19:24;;;;;;;19.75;8.82;;;;;;;5.51;100.00;98311.13;5173397;27;20052;-60
2022/10/02 00:22:03;;;;;;;15.77;8.50;;;;;;;5.32;100.00;98305.59;5173466;27;20523;-60
2022/10/02 00:24:37;;;;;;;12.15;7.95;;;;;;;5.48;100.00;98278.41;5173532;27;20102;-60
2022/10/02 00:27:14;;;;;;;13.77;8.67;;;;;;;5.42;100.00;98259.63;5173611;27;20478;-60
2022/10/02 00:29:48;;;;;;;12.77;8.05;;;;;;;5.58;100.00;98254.19;5173424;27;20046;-60
2022/10/02 00:32:24;;;;;;;13.70;7.88;;;;;;;5.53;100.00;98262.63;5173365;27;20114;-60
2022/10/02 00:35:20;;;;;;;15.68;8.77;;;;;;;5.65;100.00;98250.84;5173225;27;20049;-60
2022/10/02 00:37:54;;;;;;;12.82;7.93;;;;;;;5.61;100.00;98260.84;5173217;27;20490;-60
2022/10/02 00:40:38;;;;;;;14.65;8.90;;;;;;;5.56;100.00;98267.34;5173282;27;20100;-60
2022/10/02 00:43:13;;;;;;;16.60;8.05;;;;;;;5.66;100.00;98279.59;5173466;27;20497;-60
2022/10/02 00:46:04;;;;;;;13.93;8.60;;;;;;;5.88;100.00;98278.94;5173022;27;20469;-60
2022/10/02 00:48:46;;;;;;;17.88;7.75;;;;;;;5.84;100.00;98305.28;5173354;27;20102;-60
2022/10/02 00:51:25;;;;;;;15.77;8.63;;;;;;;5.88;100.00;98322.47;5173049;27;20042;-60
2022/10/02 00:54:04;;;;;;;12.77;7.65;;;;;;;5.90;100.00;98328.34;5172844;27;20046;-60
2022/10/02 00:56:36;;;;;;;14.10;7.28;;;;;;;5.87;100.00;98347.31;5173165;27;20497;-60
2022/10/02 00:59:20;;;;;;;12.77;8.25;;;;;;;5.94;100.00;98366.56;5172919;27;20051;-60
2022/10/02 01:01:52;;;;;;;11.40;6.43;;;;;;;5.92;100.00;98379.69;5172733;27;20516;-60
2022/10/02 01:04:26;;;;;;;13.07;7.40;;;;;;;5.88;100.00;98370.66;5172610;27;20046;-60
2022/10/02 01:06:52;;;;;;;12.98;7.18;;;;;;;5.75;100.00;98380.06;5173094;27;20133;-60
2022/10/02 01:09:19;;;;;;;13.23;7.50;;;;;;;5.73;100.00;98388.56;5172587;27;20537;-60
2022/10/02 01:11:45;;;;;;;17.00;8.50;;;;;;;5.79;100.00;98383.63;5172837;27;20100;-60
2022/10/02 01:14:13;;;;;;;13.55;7.95;;;;;;;5.60;100.00;98390.59;5172676;27;20050;-60
2022/10/02 01:16:40;;;;;;;11.95;7.45;;;;;;;5.66;100.00;98378.31;5171417;27;20057;-60
2022/10/02 01:19:20;;;;;;;13.18;8.48;;;;;;;5.57;100.00;98371.47;5172737;27;20050;-60
2022/10/02 01:21:52;;;;;;;15.18;8.23;;;;;;;5.44;100.00;98354.44;5172507;27;20046;-60
2022/10/02 01:24:24;;;;;;;15.70;7.90;;;;;;;5.51;100.00;98342.97;5172439;27;20455;-60
2022/10/02 01:26:51;;;;;;;14.60;7.82;;;;;;;5.59;100.00;98333.81;5172389;27;20057;-60
2022/10/02 01:29:18;;;;;;;11.88;7.20;;;;;;;5.66;100.00;98337.53;5172276;27;20424;-60
2022/10/02 01:31:44;;;;;;;14.00;7.47;;;;;;;5.56;100.00;98342.69;5172347;27;20436;-60
2022/10/02 01:34:11;;;;;;;13.77;7.80;;;;;;;5.53;100.00;98335.22;5172253;27;20394;-61
2022/10/02 01:36:37;;;;;;;16.65;8.55;;;;;;;5.46;100.00;98335.06;5172283;27;20082;-60
2022/10/02 01:39:04;;;;;;;12.50;7.60;;;;;;;5.65;100.00;98318.81;5172340;27;20053;-60
2022/10/02 01:41:31;;;;;;;13.48;8.35;;;;;;;5.73;100.00;98314.34;5172347;27;20046;-60
2022/10/02 01:44:01;;;;;;;13.55;7.80;;;;;;;5.59;100.00;98315.56;5172100;27;20054;-60
2022/10/02 01:46:32;;;;;;;12.02;7.53;;;;;;;5.59;100.00;98304.69;5172341;27;20046;-60
2022/10/02 01:49:17;;;;;;;15.88;8.63;;;;;;;5.49;100.00;98296.28;5172285;27;20476;-60
2022/10/02 01:52:12;;;;;;;15.82;8.32;;;;;;;5.43;100.00;98291.13;5172472;27;20054;-60
2022/10/02 01:54:51;;;;;;;18.08;8.30;;;;;;;5.35;100.00;98283.16;5172425;27;20071;-60
2022/10/02 01:57:26;;;;;;;12.60;7.20;;;;;;;5.50;100.00;98284.28;5171980;27;20046;-60
2022/10/02 02:00:06;;;;;;;16.45;7.47;;;;;;;5.55;100.00;98275.84;5172277;27;20515;-60
2022/10/02 02:02:42;;;;;;;13.18;7.30;;;;;;;5.58;100.00;98283.31;5171873;27;20046;-60
2022/10/02 02:05:11;;;;;;;18.13;8.27;;;;;;;5.76;100.00;98270.13;5172364;27;20050;-60
2022/10/02 02:07:45;;;;;;;14.93;8.48;;;;;;;5.76;100.00;98276.34;5171820;27;20137;-60
2022/10/02 02:10:21;;;;;;;12.90;7.47;;;;;;;5.70;100.00;98290.56;5171741;27;20438;-60
2022/10/02 02:12:55;;;;;;;12.30;8.18;;;;;;;5.74;100.00;98300.41;5172020;27;20046;-60
2022/10/02 02:15:27;;;;;;;12.13;7.75;;;;;;;5.76;100.00;98305.47;5171620;27;20556;-60
2022/10/02 02:18:00;;;;;;;11.13;6.82;;;;;;;5.81;100.00;98325.03;5172054;27;20103;-60
2022/10/02 02:20:29;;;;;;;12.30;7.32;;;;;;;5.84;100.00;98342.59;5171953;27;20046;-60
2022/10/02 02:23:03;;;;;;;12.18;7.25;;;;;;;5.83;100.00;98357.31;5171609;27;20126;-60
2022/10/02 02:25:34;;;;;;;10.55;6.63;;;;;;;5.75;100.00;98355.56;5171720;27;20133;-60
2022/10/02 02:28:05;;;;;;;11.98;7.13;;;;;;;5.57;100.00;98350.50;5173086;27;20054;-60
2022/10/02 02:30:36;;;;;;;12.43;7.30;;;;;;;5.35;100.00;98341.00;5175304;27;20408;-60
2022/10/02 02:33:06;;;;;;;12.02;7.07;;;;;;;5.43;100.00;98322.94;5175506;27;20046;-60
2022/10/02 02:35:37;;;;;;;10.70;7.00;;;;;;;5.51;100.00;98307.63;5175389;27;20042;-60
2022/10/02 02:38:07;;;;;;;10.68;6.18;;;;;;;5.61;100.00;98291.53;5175058;27;20067;-60
2022/10/02 02:40:38;;;;;;;8.88;6.22;;;;;;;5.61;100.00;98288.03;5175117;27;20051;-60
2022/10/02 02:43:09;;;;;;;7.20;5.22;;;;;;;5.75;100.00;98293.03;5175047;27;20054;-60
2022/10/02 02:45:40;;;;;;;6.82;5.05;;;;;;;5.76;100.00;98292.66;5174864;27;20087;-60
2022/10/02 02:48:13;;;;;;;7.65;5.57;;;;;;;5.58;100.00;98305.06;5175060;27;20050;-59
2022/10/02 02:50:43;;;;;;;6.85;5.07;;;;;;;5.50;100.00;98301.41;5174880;27;20050;-60
2022/10/02 02:53:14;;;;;;;6.95;5.28;;;;;;;5.81;100.00;98292.38;5174818;27;20078;-60
2022/10/02 02:55:46;;;;;;;6.70;5.18;;;;;;;5.78;100.00;98295.03;5174977;27;20051;-60
2022/10/02 02:58:17;;;;;;;8.00;4.93;;;;;;;5.85;100.00;98303.34;5175110;27;20412;-60
2022/10/02 03:00:44;;;;;;;7.45;4.70;;;;;;;5.62;100.00;98312.16;5174692;27;20505;-60
2022/10/02 03:03:10;;;;;;;6.57;4.57;;;;;;;5.84;100.00;98310.72;5174996;27;20442;-60
2022/10/02 03:05:42;;;;;;;7.30;4.97;;;;;;;5.72;100.00;98334.53;5174868;27;20050;-60
2022/10/02 03:08:17;;;;;;;5.88;4.80;;;;;;;5.72;100.00;98324.41;5174886;27;20077;-60
2022/10/02 03:10:55;;;;;;;5.60;4.60;;;;;;;5.42;100.00;98330.31;5174645;27;20098;-60
2022/10/02 03:13:33;;;;;;;5.63;4.57;;;;;;;5.11;100.00;98324.88;5174499;27;20046;-61
2022/10/02 03:16:12;;;;;;;4.88;3.95;;;;;;;5.22;100.00;98306.13;5174726;27;20129;-60
2022/10/02 03:18:50;;;;;;;5.82;3.55;;;;;;;5.60;100.00;98287.25;5174417;27;20058;-60
2022/10/02 03:21:23;;;;;;;7.25;4.32;;;;;;;5.35;100.00;98286.66;5174418;27;20077;-60
2022/10/02 03:23:58;;;;;;;6.53;4.97;;;;;;;5.40;100.00;98275.53;5174295;27;20053;-60
2022/10/02 03:26:32;;;;;;;7.25;4.38;;;;;;;5.72;100.00;98278.19;5174698;27;20132;-60
2022/10/02 03:29:02;;;;;;;5.75;4.50;;;;;;;5.56;100.00;98283.66;5174315;27;20046;-60
2022/10/02 03:31:32;;;;;;;5.68;3.72;;;;;;;5.49;100.00;98285.41;5174536;27;20054;-61
2022/10/02 03:34:00;;;;;;;6.10;4.45;;;;;;;5.61;100.00;98288.84;5174468;27;20046;-60
2022/10/02 03:36:27;;;;;;;4.68;4.05;;;;;;;5.38;100.00;98285.16;5173994;27;20507;-61
2022/10/02 03:38:56;;;;;;;16.48;4.75;;;;;;;5.22;100.00;98268.06;5173709;27;20398;-60
2022/10/02 03:41:22;;;;;;;24.42;3.92;;;;;;;5.33;100.00;98261.78;5174133;27;20129;-60
2022/10/02 03:43:48;;;;;;;16.27;3.72;;;;;;;5.40;100.00;98258.44;5174179;27;20057;-60
2022/10/02 03:46:15;;;;;;;5.55;3.85;;;;;;;5.37;100.00;98253.69;5173992;27;20141;-60
2022/10/02 03:48:42;;;;;;;42.13;5.13;;;;;;;5.12;100.00;98248.44;5173961;27;20046;-60
2022/10/02 03:51:08;;;;;;;5.38;4.25;;;;;;;5.23;100.00;98245.19;5173826;27;20133;-61
2022/10/02 03:53:34;;;;;;;8.85;4.63;;;;;;;5.16;100.00;98237.66;5174068;27;20054;-60
2022/10/02 03:56:07;;;;;;;11.02;4.68;;;;;;;5.58;100.00;98220.78;5173930;27;20060;-61
2022/10/02 03:58:34;;;;;;;17.35;4.50;;;;;;;5.70;100.00;98228.81;5173956;27;20050;-61
2022/10/02 04:01:05;;;;;;;11.13;4.53;;;;;;;5.63;100.00;98240.34;5174030;27;20520;-60
2022/10/02 04:03:34;;;;;;;18.20;4.45;;;;;;;5.36;100.00;98242.03;5173677;27;20050;-60
2022/10/02 04:06:05;;;;;;;37.95;5.00;;;;;;;5.56;100.00;98234.72;5173908;27;20066;-60
2022/10/02 04:08:35;;;;;;;5.90;4.13;;;;;;;5.46;100.00;98232.53;5173673;27;20050;-60
2022/10/02 04:11:07;;;;;;;21.95;4.82;;;;;;;5.53;100.00;98227.28;5173749;27;20509;-60
2022/10/02 04:13:38;;;;;;;38.05;4.55;;;;;;;5.45;100.00;98232.91;5173545;27;20086;-60
2022/10/02 04:16:09;;;;;;;33.60;5.60;;;;;;;5.20;100.00;98224.97;5173571;27;20050;-60
2022/10/02 04:18:41;;;;;;;17.77;4.80;;;;;;;5.44;100.00;98213.09;5173769;27;20118;-60
2022/10/02 04:21:14;;;;;;;33.08;6.00;;;;;;;5.53;100.00;98200.09;5173544;27;20464;-60
2022/10/02 04:23:46;;;;;;;34.47;6.30;;;;;;;5.47;100.00;98192.56;5173706;27;20077;-60
2022/10/02 04:26:17;;;;;;;22.67;5.15;;;;;;;5.72;100.00;98193.09;5173411;27;20064;-60
2022/10/02 04:28:49;;;;;;;6.45;4.43;;;;;;;5.79;100.00;98194.03;5173587;27;20053;-60
2022/10/02 04:31:15;;;;;;;9.25;4.97;;;;;;;5.97;100.00;98186.28;5173368;27;20505;-60
2022/10/02 04:33:41;;;;;;;7.40;4.50;;;;;;;6.05;100.00;98192.66;5173386;27;20140;-60
2022/10/02 04:36:21;;;;;;;6.88;4.38;;;;;;;6.13;100.00;98210.69;5173218;27;20115;-60
2022/10/02 04:39:08;;;;;;;7.03;4.53;;;;;;;6.21;100.00;98233.41;5173092;27;20098;-60
2022/10/02 04:41:57;;;;;;;8.70;4.78;;;;;;;6.11;100.00;98232.03;5159144;27;20050;-60
2022/10/02 04:44:38;;;;;;;8.55;4.53;;;;;;;6.13;100.00;98230.53;5173145;27;20050;-61
2022/10/02 04:47:32;;;;;;;8.13;5.00;;;;;;;5.84;100.00;98220.19;5173319;27;20150;-60
2022/10/02 04:50:26;;;;;;;9.33;4.70;;;;;;;5.96;100.00;98208.41;5172390;27;20047;-60
2022/10/02 04:53:15;;;;;;;8.73;5.10;;;;;;;6.10;100.00;98209.50;5172986;27;20057;-61
2022/10/02 04:56:12;;;;;;;11.38;4.43;;;;;;;5.92;100.00;98210.22;5169441;27;20054;-61
2022/10/02 04:59:05;;;;;;;5.85;4.10;;;;;;;6.27;100.00;98197.38;5173158;27;20047;-61
2022/10/02 05:01:46;;;;;;;5.55;4.07;;;;;;;6.32;100.00;98212.63;5172744;27;20050;-61
2022/10/02 05:04:38;;;;;;;6.93;3.80;;;;;;;6.31;100.00;98211.84;5172945;27;20409;-60
2022/10/02 05:07:29;;;;;;;13.57;4.10;;;;;;;6.46;100.00;98198.47;5172815;27;20421;-61
2022/10/02 05:10:02;;;;;;;28.63;4.47;;;;;;;5.88;100.00;98212.88;5172514;27;20049;-60
2022/10/02 05:12:50;;;;;;;19.47;4.33;;;;;;;6.24;100.00;98186.44;5172722;27;20103;-61
2022/10/02 05:15:32;;;;;;;54.65;4.97;;;;;;;6.25;100.00;98161.56;5172715;27;20470;-60
2022/10/02 05:18:14;;;;;;;27.63;5.18;;;;;;;6.39;100.00;98162.97;5172823;27;20051;-60
2022/10/02 05:21:06;;;;;;;21.73;3.72;;;;;;;6.40;100.00;98146.28;5172757;27;20097;-60
2022/10/02 05:23:50;;;;;;;59.80;5.50;;;;;;;6.32;100.00;98141.84;5172155;27;20069;-61
2022/10/02 05:26:34;;;;;;;64.05;5.97;;;;;;;6.05;100.00;98133.56;5172662;27;20046;-61
2022/10/02 05:29:20;;;;;;;80.05;6.20;;;;;;;6.10;100.00;98125.13;5172319;27;20157;-60
2022/10/02 05:32:02;;;;;;;53.97;5.47;;;;;;;6.44;100.00;98113.69;5172479;27;20042;-60
2022/10/02 05:34:45;;;;;;;29.13;4.55;;;;;;;6.45;100.00;98107.06;5172395;27;20048;-60
2022/10/02 05:37:25;;;;;;;22.98;3.53;;;;;;;6.77;100.00;98099.44;5172132;27;20139;-61
2022/10/02 05:40:01;;;;;;;46.58;5.25;;;;;;;6.64;100.00;98101.56;5172231;27;20052;-61
2022/10/02 05:42:34;;;;;;;36.53;4.50;;;;;;;6.49;100.00;98108.69;5172287;27;20050;-61
2022/10/02 05:45:04;;;;;;;37.45;5.05;;;;;;;6.70;100.00;98110.22;5172382;27;20505;-61
2022/10/02 05:47:34;;;;;;;56.25;5.85;;;;;;;6.37;100.00;98103.44;5172022;27;20094;-60
2022/10/02 05:50:13;;;;;;;32.20;4.35;;;;;;;6.58;100.00;98105.75;5172395;27;20073;-61
2022/10/02 05:52:46;;;;;;;28.40;6.68;;;;;;;6.56;100.00;98102.59;5171841;27;20425;-61
2022/10/02 05:55:18;;;;;;;22.88;4.72;;;;;;;6.62;100.00;98106.56;5171884;27;20060;-60
2022/10/02 05:57:50;;;;;;;31.00;5.28;;;;;;;6.56;100.00;98108.84;5171830;27;20560;-60
2022/10/02 06:00:28;;;;;;;11.43;4.90;;;;;;;6.65;100.00;98115.97;5171958;27;20050;-61
2022/10/02 06:03:03;;;;;;;11.63;5.28;;;;;;;6.89;100.00;98118.28;5173543;27;20091;-61
2022/10/02 06:05:41;;;;;;;10.50;4.72;;;;;;;6.76;100.00;98131.31;5175922;27;20149;-61
2022/10/02 06:08:11;;;;;;;14.77;4.90;;;;;;;6.89;100.00;98131.13;5175721;27;20042;-61
2022/10/02 06:10:44;;;;;;;8.27;4.80;;;;;;;6.70;100.00;98137.47;5175530;27;20077;-61
2022/10/02 06:13:21;;;;;;;16.65;4.85;;;;;;;6.86;100.00;98140.03;5175750;27;20061;-61
2022/10/02 06:15:52;;;;;;;11.10;4.15;;;;;;;7.18;100.00;98130.41;5175527;27;20057;-61
2022/10/02 06:18:22;;;;;;;6.45;4.43;;;;;;;7.17;100.00;98138.97;5175421;27;20077;-61
2022/10/02 06:20:53;;;;;;;8.10;4.97;;;;;;;7.14;100.00;98145.16;5175540;27;20065;-61
2022/10/02 06:23:24;;;;;;;8.75;4.65;;;;;;;7.21;100.00;98150.72;5175381;27;20050;-60
2022/10/02 06:25:55;;;;;;;7.05;4.10;;;;;;;7.19;100.00;98156.50;5175635;27;20497;-61
2022/10/02 06:28:27;;;;;;;7.95;5.28;;;;;;;7.20;100.00;98166.28;5175317;27;20619;-61
2022/10/02 06:30:58;;;;;;;12.68;4.28;;;;;;;7.38;100.00;98171.97;5175168;27;20103;-60
2022/10/02 06:33:30;;;;;;;14.43;4.47;;;;;;;7.48;100.00;98197.84;5175220;27;20416;-61
2022/10/02 06:36:30;;;;;;;11.55;4.78;;;;;;;7.48;100.00;98222.38;5175281;27;20060;-61
2022/10/02 06:39:12;;;;;;;8.52;4.70;;;;;;;7.63;100.00;98256.09;5175129;27;20053;-61
2022/10/02 06:41:53;;;;;;;10.13;4.85;;;;;;;7.43;100.00;98280.75;5175218;27;20119;-61
2022/10/02 06:44:26;;;;;;;7.55;4.78;;;;;;;7.52;100.00;98285.94;5175348;27;20046;-61
2022/10/02 06:47:06;;;;;;;11.40;4.65;;;;;;;7.43;100.00;98279.94;5175120;27;20046;-61
2022/10/02 06:49:45;;;;;;;5.85;4.20;;;;;;;7.40;100.00;98275.25;5174915;27;20057;-61
2022/10/02 06:52:21;;;;;;;5.50;4.22;;;;;;;7.69;100.00;98276.47;5175069;27;20477;-61
2022/10/02 06:55:04;;;;;;;7.43;4.60;;;;;;;7.55;100.00;98298.84;5174867;27;20047;-61
2022/10/02 06:57:47;;;;;;;6.95;4.35;;;;;;;7.49;100.00;98289.41;5174822;27;20465;-61
2022/10/02 07:00:17;;;;;;;5.15;3.95;;;;;;;7.38;100.00;98302.88;5174630;27;20439;-61
2022/10/02 07:03:15;;;;;;;8.38;3.97;;;;;;;8.10;100.00;98295.78;5174498;27;20057;-61
2022/10/02 07:06:03;;;;;;;7.05;3.95;;;;;;;7.68;100.00;98313.09;5175057;27;20046;-61
2022/10/02 07:08:43;;;;;;;7.80;4.80;;;;;;;7.44;100.00;98304.13;5175008;27;20463;-61
2022/10/02 07:11:18;;;;;;;8.13;4.95;;;;;;;7.88;100.00;98297.41;5174807;27;20054;-61
2022/10/02 07:13:57;;;;;;;7.75;4.43;;;;;;;8.06;100.00;98306.63;5173918;27;20547;-61
2022/10/02 07:16:50;;;;;;;4.40;3.53;;;;;;;8.05;100.00;98324.16;5174583;27;20062;-61
2022/10/02 07:19:38;;;;;;;5.10;3.70;;;;;;;8.12;100.00;98326.97;5174534;27;20053;-61
2022/10/02 07:22:16;;;;;;;5.50;4.22;;;;;;;8.24;100.00;98334.19;5174366;27;20046;-61
2022/10/02 07:24:59;;;;;;;5.32;3.67;;;;;;;8.33;100.00;98342.09;5174459;27;20046;-61
2022/10/02 07:27:34;;;;;;;6.38;4.68;;;;;;;8.34;100.00;98347.19;5174421;27;20042;-61
2022/10/02 07:30:05;;;;;;;4.93;4.22;;;;;;;7.85;100.00;98363.63;5174196;27;20046;-61
2022/10/02 07:32:46;;;;;;;8.02;4.47;;;;;;;8.37;100.00;98360.09;5174374;27;20424;-61
2022/10/02 07:35:36;;;;;;;6.25;4.25;;;;;;;8.23;100.00;98384.47;5174172;27;20155;-61
2022/10/02 07:38:23;;;;;;;5.30;3.75;;;;;;;8.33;100.00;98372.13;5161959;27;20060;-61
2022/10/02 07:40:58;;;;;;;7.18;3.95;;;;;;;8.08;100.00;98385.44;5174094;27;20089;-61
2022/10/02 07:43:45;;;;;;;6.03;4.40;;;;;;;8.19;100.00;98368.03;5173997;27;20086;-61
2022/10/02 07:46:18;;;;;;;4.82;3.90;;;;;;;8.58;100.00;98358.84;5174093;27;20049;-61
2022/10/02 07:48:55;;;;;;;6.50;3.78;;;;;;;8.39;100.00;98379.66;5174227;27;20046;-61
2022/10/02 07:54:40;;;;;;;7.35;4.35;;;;;;;8.80;100.00;98379.03;5157839;27;20050;-61
2022/10/02 07:57:29;;;;;;;4.68;4.05;;;;;;;8.86;100.00;98393.91;5173734;27;20046;-61
2022/10/02 08:00:01;;;;;;;5.97;4.20;;;;;;;8.88;100.00;98389.66;5173975;27;20110;-61
2022/10/02 08:02:33;;;;;;;5.32;3.92;;;;;;;8.93;100.00;98394.81;5173881;27;20042;-61
2022/10/02 08:05:04;;;;;;;4.63;3.90;;;;;;;8.89;100.00;98409.59;5173721;27;20094;-61
2022/10/02 08:07:31;;;;;;;5.40;4.20;;;;;;;9.15;100.00;98430.59;5173697;27;20053;-61
2022/10/02 08:10:05;;;;;;;4.43;3.50;;;;;;;9.13;100.00;98441.09;5173797;27;20098;-61
2022/10/02 08:12:37;;;;;;;5.22;4.03;;;;;;;8.97;100.00;98460.47;5173984;27;20106;-61
2022/10/02 08:15:06;;;;;;;5.43;4.25;;;;;;;9.12;100.00;98456.72;5173611;27;20050;-61
2022/10/02 08:17:39;;;;;;;4.63;4.20;;;;;;;8.87;100.00;98461.13;5173638;27;20081;-61
2022/10/02 08:20:17;;;;;;;5.35;4.07;;;;;;;8.92;100.00;98447.09;5173580;27;20053;-61
2022/10/02 08:22:48;;;;;;;4.80;4.00;;;;;;;8.89;100.00;98445.13;5173537;27;20429;-61
2022/10/02 08:25:21;;;;;;;5.45;3.97;;;;;;;9.03;100.00;98436.31;5173253;27;20455;-61
2022/10/02 08:27:55;;;;;;;6.82;4.03;;;;;;;8.90;100.00;98443.97;5173446;27;20050;-61
2022/10/02 08:30:21;;;;;;;4.82;3.88;;;;;;;8.99;100.00;98447.19;5173367;27;20046;-61
2022/10/02 08:32:48;;;;;;;4.97;4.10;;;;;;;8.75;100.00;98434.00;5173209;27;20085;-61
2022/10/02 08:35:17;;;;;;;3.90;3.50;;;;;;;8.82;100.00;98431.34;5173387;27;20183;-61
2022/10/02 08:38:03;;;;;;;6.63;4.35;;;;;;;9.02;100.00;98429.28;5173445;27;20050;-61
2022/10/02 08:41:08;;;;;;;5.65;4.43;;;;;;;9.13;100.00;98432.91;5173284;27;20078;-61
2022/10/02 08:44:04;;;;;;;7.80;4.38;;;;;;;8.93;100.00;98441.28;5172986;27;20501;-61
2022/10/02 08:47:02;;;;;;;5.05;4.20;;;;;;;9.01;100.00;98433.94;5173336;27;20428;-61
2022/10/02 08:50:01;;;;;;;5.97;4.75;;;;;;;9.08;100.00;98442.25;5130762;27;20477;-61
2022/10/02 08:53:00;;;;;;;6.90;4.43;;;;;;;8.82;100.00;98447.75;5173220;27;20054;-61
2022/10/02 08:55:45;;;;;;;7.10;4.55;;;;;;;9.19;100.00;98453.28;5164583;27;20054;-61
2022/10/02 08:58:29;;;;;;;;;;;;;;;9.09;100.00;98467.63;5173360;27;20050;-61
2022/10/02 09:01:09;;;;;;;5.20;4.30;;;;;;;9.20;100.00;98454.91;5158768;27;20378;-61
2022/10/02 09:04:07;;;;;;;4.72;3.58;;;;;;;9.07;100.00;98478.16;5172884;27;20092;-61
2022/10/02 09:07:09;;;;;;;5.03;4.22;;;;;;;9.21;100.00;98464.66;5166130;27;20046;-61
2022/10/02 09:10:00;;;;;;;6.68;4.60;;;;;;;9.24;100.00;98466.66;5170334;27;20056;-61
2022/10/02 09:13:07;;;;;;;6.22;4.78;;;;;;;8.97;100.00;98479.59;5154997;27;20465;-61
2022/10/02 09:15:45;;;;;;;5.55;4.30;;;;;;;9.16;100.00;98475.91;5172706;27;20050;-60
2022/10/02 09:18:18;;;;;;;5.55;4.45;;;;;;;9.09;100.00;98484.81;5172518;27;20473;-61
2022/10/02 09:21:14;;;;;;;6.22;4.57;;;;;;;8.79;100.00;98478.56;5172732;27;20141;-61
2022/10/02 09:24:18;;;;;;;7.57;4.28;;;;;;;8.77;100.00;98457.09;5172338;27;20050;-61
2022/10/02 09:27:28;;;;;;;5.38;4.65;;;;;;;8.85;100.00;98456.00;5172761;27;20142;-61
2022/10/02 09:30:26;;;;;;;6.20;4.80;;;;;;;8.73;100.00;98448.06;5173006;27;20173;-61
2022/10/02 09:33:26;;;;;;;7.93;4.65;;;;;;;8.76;100.00;98425.41;5165194;27;20054;-61
2022/10/02 09:36:29;;;;;;;6.22;4.72;;;;;;;8.47;100.00;98429.72;5172481;27;20062;-61
2022/10/02 09:39:35;;;;;;;6.55;4.88;;;;;;;8.82;100.00;98414.97;5171873;27;20394;-61
2022/10/02 09:42:33;;;;;;;9.27;5.03;;;;;;;8.74;100.00;98421.50;5172132;27;20074;-61
2022/10/02 09:45:32;;;;;;;7.10;4.75;;;;;;;8.68;100.00;98402.69;5172266;27;20560;-62
2022/10/02 09:48:29;;;;;;;7.32;4.57;;;;;;;8.89;100.00;98390.44;5162975;27;20428;-61
2022/10/02 09:51:41;;;;;;;8.93;5.10;;;;;;;8.99;100.00;98399.94;5165661;27;20121;-61
2022/10/02 09:54:41;;;;;;;6.40;4.10;;;;;;;8.66;100.00;98390.56;5172251;27;20046;-61
2022/10/02 09:57:38;;;;;;;9.85;4.32;;;;;;;8.65;100.00;98367.13;5172226;27;20057;-61
2022/10/02 10:00:19;;;;;;;6.75;4.95;;;;;;;8.59;100.00;98342.06;5171966;27;20065;-61
2022/10/02 10:03:27;;;;;;;9.32;4.75;;;;;;;8.98;100.00;98330.81;5171940;27;20046;-61
2022/10/02 10:06:43;;;;;;;6.65;4.60;;;;;;;8.74;100.00;98345.78;5172093;27;20094;-61
2022/10/02 10:09:57;;;;;;;8.73;5.60;;;;;;;8.87;100.00;98329.91;5171805;27;20528;-61
2022/10/02 10:12:55;;;;;;;6.90;5.22;;;;;;;8.87;100.00;98325.22;5171826;27;20053;-61
2022/10/02 10:16:00;;;;;;;9.48;5.47;;;;;;;8.60;100.00;98310.09;5171649;27;20516;-61
2022/10/02 10:19:02;;;;;;;9.60;5.93;;;;;;;8.85;100.00;98285.75;5132233;27;20515;-61
2022/10/02 10:22:14;;;;;;;11.70;6.18;;;;;;;8.59;100.00;98283.91;5171553;27;20050;-60
2022/10/02 10:25:28;;;;;;;8.35;5.90;;;;;;;8.69;100.00;98251.25;5171656;27;20141;-61
2022/10/02 10:28:32;;;;;;;12.60;6.80;;;;;;;8.68;100.00;98230.53;5066738;28;20049;-60
2022/10/02 10:31:34;;;;;;;17.73;7.80;;;;;;;8.50;100.00;98240.50;5066756;28;20533;-59
2022/10/02 10:34:44;;;;;;;12.00;7.43;;;;;;;8.37;100.00;98211.84;5066731;28;20056;-59
2022/10/02 10:40:48;;;;;;;9.90;6.60;;;;;;;8.45;100.00;98192.44;4968225;28;20081;-60
2022/10/02 10:43:50;;;;;;;12.25;6.93;;;;;;;8.36;100.00;98166.56;5065896;28;20056;-60
2022/10/02 10:46:49;;;;;;;13.13;6.63;;;;;;;8.49;100.00;98152.28;5066547;28;20055;-60
2022/10/02 10:49:41;;;;;;;10.77;6.88;;;;;;;8.63;100.00;98138.00;5068187;28;20105;-60
2022/10/02 10:52:19;;;;;;;11.10;7.00;;;;;;;8.53;100.00;98151.53;5070168;28;20049;-60
2022/10/02 10:55:05;;;;;;;10.43;6.95;;;;;;;8.45;100.00;98151.47;5070048;28;20139;-60
2022/10/02 10:57:50;;;;;;;10.70;6.53;;;;;;;8.66;100.00;98139.19;5079222;27;20548;-60
2022/10/02 11:00:23;;;;;;;12.30;7.13;;;;;;;8.70;100.00;98151.72;5175039;27;20094;-60
2022/10/02 11:02:58;;;;;;;15.27;7.97;;;;;;;8.65;100.00;98154.78;5174691;27;20050;-61
2022/10/02 11:05:54;;;;;;;12.48;7.68;;;;;;;8.63;100.00;98169.97;5174756;27;20054;-60
2022/10/02 11:08:57;;;;;;;14.77;7.18;;;;;;;8.59;100.00;98172.69;5157437;27;20130;-60
2022/10/02 11:11:30;;;;;;;16.70;8.43;;;;;;;8.25;100.00;98155.53;5133723;27;20153;-60
2022/10/02 11:14:19;;;;;;;13.13;6.82;;;;;;;8.44;100.00;98151.88;5174708;27;20057;-60
2022/10/02 11:17:13;;;;;;;14.52;7.25;;;;;;;8.37;100.00;98143.56;5174799;27;20424;-60
2022/10/02 11:20:10;;;;;;;13.30;7.72;;;;;;;8.29;100.00;98142.69;5174413;27;20102;-61
2022/10/02 11:23:03;;;;;;;12.23;7.38;;;;;;;8.34;100.00;98120.53;5160504;27;20451;-61
2022/10/02 11:25:51;;;;;;;12.20;7.07;;;;;;;8.24;100.00;98113.00;5127183;27;20053;-61
2022/10/02 11:28:57;;;;;;;17.42;7.88;;;;;;;8.28;100.00;98108.38;5174600;27;20050;-61
2022/10/02 11:31:45;;;;;;;18.98;7.80;;;;;;;8.54;100.00;98114.88;5174486;27;20448;-60
2022/10/02 11:34:42;;;;;;;19.30;7.70;;;;;;;8.57;100.00;98120.38;5174167;27;20049;-60
2022/10/02 11:37:28;;;;;;;12.63;7.22;;;;;;;8.39;100.00;98114.75;5174361;27;20077;-61
2022/10/02 11:40:27;;;;;;;8.98;6.55;;;;;;;8.01;100.00;98113.94;5174172;27;20629;-61
2022/10/02 11:43:16;;;;;;;14.25;6.78;;;;;;;8.27;100.00;98106.81;5170845;27;20046;-61
2022/10/02 11:46:03;;;;;;;16.42;7.47;;;;;;;8.25;100.00;98107.16;5171162;27;20046;-61
2022/10/02 11:48:58;;;;;;;14.68;7.53;;;;;;;8.19;100.00;98102.41;5174207;27;20508;-61
2022/10/02 11:51:49;;;;;;;11.77;7.00;;;;;;;8.15;100.00;98101.59;5174064;27;20091;-61
2022/10/02 11:54:53;;;;;;;10.52;6.45;;;;;;;8.05;100.00;98094.88;5128058;27;20050;-61
2022/10/02 11:57:34;;;;;;;10.32;5.95;;;;;;;8.22;100.00;98094.25;5171316;27;20541;-61
2022/10/02 12:00:12;;;;;;;10.25;6.03;;;;;;;7.92;100.00;98094.34;5173122;27;20074;-61
2022/10/02 12:02:47;;;;;;;8.68;5.70;;;;;;;8.21;100.00;98083.72;5173843;27;20089;-61
2022/10/02 12:05:24;;;;;;;7.35;5.20;;;;;;;7.87;100.00;98091.19;5173988;27;20046;-61
2022/10/02 12:08:00;;;;;;;7.40;5.20;;;;;;;8.24;100.00;98091.16;5173833;27;20050;-61
2022/10/02 12:10:48;;;;;;;7.97;5.60;;;;;;;8.53;100.00;98108.66;5173714;27;20042;-61
2022/10/02 12:13:48;;;;;;;10.38;5.72;;;;;;;8.18;100.00;98128.16;5173557;27;20046;-61
2022/10/02 12:16:23;;;;;;;4.80;4.03;;;;;;;8.21;100.00;98122.72;5166586;27;20160;-61
2022/10/02 12:19:10;;;;;;;7.15;4.45;;;;;;;7.84;100.00;98135.56;5173516;27;20046;-61
2022/10/02 12:27:50;;;;;;;8.05;3.63;;;;;;;8.02;100.00;98166.59;5173493;27;20049;-61
2022/10/02 12:30:19;;;;;;;5.18;3.28;;;;;;;8.05;100.00;98184.16;5173545;27;20052;-61
2022/10/02 12:33:08;;;;;;;6.97;3.85;;;;;;;8.21;100.00;98182.81;5173256;27;20046;-61
2022/10/02 12:35:46;;;;;;;5.70;3.92;;;;;;;7.92;100.00;98194.53;5173238;27;20152;-61
2022/10/02 12:38:36;;;;;;;3.97;3.13;;;;;;;8.11;100.00;98190.88;5173418;27;20046;-61
2022/10/02 12:41:12;;;;;;;3.70;3.28;;;;;;;8.31;100.00;98218.78;5173160;27;20050;-61
2022/10/02 12:44:20;;;;;;;5.80;3.67;;;;;;;8.20;100.00;98227.66;5173347;27;20200;-61